sensor_id;sensor_type;location;lat;lon;timestamp;pressure;altitude;pressure_sealevel;temperature;humidity
66430;BME280;53242;51.694;10.006;2023-02-12T00:01:33;101542.31;;;7.58;89.72
66430;BME280;53242;51.694;10.006;2023-02-12T00:03:56;101539.81;;;7.56;90.06
66430;BME280;53242;51.694;10.006;2023-02-12T00:06:19;101545.78;;;7.58;89.83
66430;BME280;53242;51.694;10.006;2023-02-12T00:08:42;101543.38;;;7.67;89.71
66430;BME280;53242;51.694;10.006;2023-02-12T00:11:16;101549.44;;;7.79;89.23
66430;BME280;53242;51.694;10.006;2023-02-12T00:13:39;101545.50;;;7.73;89.14
66430;BME280;53242;51.694;10.006;2023-02-12T00:16:10;101550.66;;;7.63;89.52
66430;BME280;53242;51.694;10.006;2023-02-12T00:18:33;101546.59;;;7.70;89.28
66430;BME280;53242;51.694;10.006;2023-02-12T00:20:58;101556.25;;;7.70;88.95
66430;BME280;53242;51.694;10.006;2023-02-12T00:23:20;101551.41;;;7.65;89.35
66430;BME280;53242;51.694;10.006;2023-02-12T00:25:43;101554.72;;;7.67;89.19
66430;BME280;53242;51.694;10.006;2023-02-12T00:28:05;101553.66;;;7.58;89.54
66430;BME280;53242;51.694;10.006;2023-02-12T00:30:28;101556.53;;;7.67;89.14
66430;BME280;53242;51.694;10.006;2023-02-12T00:32:50;101555.66;;;7.66;89.38
66430;BME280;53242;51.694;10.006;2023-02-12T00:35:13;101557.22;;;7.69;89.13
66430;BME280;53242;51.694;10.006;2023-02-12T00:37:35;101556.84;;;7.73;88.89
66430;BME280;53242;51.694;10.006;2023-02-12T00:39:58;101559.34;;;7.75;88.57
66430;BME280;53242;51.694;10.006;2023-02-12T00:42:20;101559.94;;;7.79;88.67
66430;BME280;53242;51.694;10.006;2023-02-12T00:44:42;101562.94;;;7.74;88.69
66430;BME280;53242;51.694;10.006;2023-02-12T00:47:05;101560.19;;;7.76;88.52
66430;BME280;53242;51.694;10.006;2023-02-12T00:49:28;101562.19;;;7.83;88.64
66430;BME280;53242;51.694;10.006;2023-02-12T00:51:55;101567.06;;;7.88;88.15
66430;BME280;53242;51.694;10.006;2023-02-12T00:54:17;101570.72;;;7.76;88.35
66430;BME280;53242;51.694;10.006;2023-02-12T00:56:40;101576.34;;;7.71;88.78
66430;BME280;53242;51.694;10.006;2023-02-12T00:59:02;101562.38;;;7.70;89.03
66430;BME280;53242;51.694;10.006;2023-02-12T01:01:25;101568.88;;;7.55;89.26
66430;BME280;53242;51.694;10.006;2023-02-12T01:03:47;101555.97;;;7.40;90.08
66430;BME280;53242;51.694;10.006;2023-02-12T01:06:09;101568.13;;;7.53;90.47
66430;BME280;53242;51.694;10.006;2023-02-12T01:08:32;101559.44;;;7.52;90.28
66430;BME280;53242;51.694;10.006;2023-02-12T01:10:59;101560.84;;;7.56;90.14
66430;BME280;53242;51.694;10.006;2023-02-12T01:13:24;101563.16;;;7.50;90.08
66430;BME280;53242;51.694;10.006;2023-02-12T01:15:47;101569.56;;;7.57;90.09
66430;BME280;53242;51.694;10.006;2023-02-12T01:18:09;101565.03;;;7.59;90.09
66430;BME280;53242;51.694;10.006;2023-02-12T01:20:32;101566.09;;;7.56;90.09
66430;BME280;53242;51.694;10.006;2023-02-12T01:22:54;101575.53;;;7.59;90.01
66430;BME280;53242;51.694;10.006;2023-02-12T01:25:17;101573.69;;;7.71;89.68
66430;BME280;53242;51.694;10.006;2023-02-12T01:27:39;101572.03;;;7.70;89.35
66430;BME280;53242;51.694;10.006;2023-02-12T01:30:04;101579.22;;;7.68;89.36
66430;BME280;53242;51.694;10.006;2023-02-12T01:32:26;101569.78;;;7.65;89.83
66430;BME280;53242;51.694;10.006;2023-02-12T01:34:49;101572.41;;;7.65;89.56
66430;BME280;53242;51.694;10.006;2023-02-12T01:37:11;101571.38;;;7.56;90.09
66430;BME280;53242;51.694;10.006;2023-02-12T01:39:35;101571.69;;;7.63;89.78
66430;BME280;53242;51.694;10.006;2023-02-12T01:41:57;101565.84;;;7.60;89.92
66430;BME280;53242;51.694;10.006;2023-02-12T01:44:21;101571.38;;;7.56;90.24
66430;BME280;53242;51.694;10.006;2023-02-12T01:46:45;101563.94;;;7.62;89.94
66430;BME280;53242;51.694;10.006;2023-02-12T01:49:19;101569.44;;;7.58;90.18
66430;BME280;53242;51.694;10.006;2023-02-12T01:51:45;101564.16;;;7.58;90.22
66430;BME280;53242;51.694;10.006;2023-02-12T01:54:10;101566.56;;;7.62;90.08
66430;BME280;53242;51.694;10.006;2023-02-12T01:56:34;101566.81;;;7.58;90.05
66430;BME280;53242;51.694;10.006;2023-02-12T01:58:56;101562.28;;;7.49;91.00
66430;BME280;53242;51.694;10.006;2023-02-12T02:01:22;101562.75;;;7.54;90.52
66430;BME280;53242;51.694;10.006;2023-02-12T02:03:48;101570.88;;;7.63;90.44
66430;BME280;53242;51.694;10.006;2023-02-12T02:06:17;101568.34;;;7.61;90.08
66430;BME280;53242;51.694;10.006;2023-02-12T02:08:41;101567.53;;;7.61;90.38
66430;BME280;53242;51.694;10.006;2023-02-12T02:11:06;101569.66;;;7.67;90.21
66430;BME280;53242;51.694;10.006;2023-02-12T02:13:49;101568.34;;;7.61;90.53
66430;BME280;53242;51.694;10.006;2023-02-12T02:16:33;101574.69;;;7.58;90.87
66430;BME280;53242;51.694;10.006;2023-02-12T02:28:17;101570.31;;;7.36;92.05
66430;BME280;53242;51.694;10.006;2023-02-12T02:31:08;101567.94;;;7.45;92.09
66430;BME280;53242;51.694;10.006;2023-02-12T02:34:02;101563.38;;;7.47;91.82
66430;BME280;53242;51.694;10.006;2023-02-12T02:36:37;101574.13;;;7.55;91.64
66430;BME280;53242;51.694;10.006;2023-02-12T02:39:03;101573.13;;;7.56;91.42
66430;BME280;53242;51.694;10.006;2023-02-12T02:41:34;101563.34;;;7.58;91.50
66430;BME280;53242;51.694;10.006;2023-02-12T02:43:59;101569.84;;;7.43;92.31
66430;BME280;53242;51.694;10.006;2023-02-12T02:46:35;101574.63;;;7.37;92.70
66430;BME280;53242;51.694;10.006;2023-02-12T02:49:02;101567.94;;;7.45;92.64
66430;BME280;53242;51.694;10.006;2023-02-12T02:51:29;101563.00;;;7.51;92.20
66430;BME280;53242;51.694;10.006;2023-02-12T02:54:00;101562.53;;;7.57;92.11
66430;BME280;53242;51.694;10.006;2023-02-12T02:56:26;101567.53;;;7.61;91.68
66430;BME280;53242;51.694;10.006;2023-02-12T02:58:56;101566.34;;;7.53;91.28
66430;BME280;53242;51.694;10.006;2023-02-12T03:01:25;101568.72;;;7.56;92.38
66430;BME280;53242;51.694;10.006;2023-02-12T03:04:06;101565.63;;;7.63;92.38
66430;BME280;53242;51.694;10.006;2023-02-12T03:06:41;101566.09;;;7.68;91.95
66430;BME280;53242;51.694;10.006;2023-02-12T03:09:17;101568.44;;;7.71;92.04
66430;BME280;53242;51.694;10.006;2023-02-12T03:11:40;101559.84;;;7.69;91.87
66430;BME280;53242;51.694;10.006;2023-02-12T03:14:11;101563.19;;;7.71;91.49
66430;BME280;53242;51.694;10.006;2023-02-12T03:16:57;101563.22;;;7.60;92.30
66430;BME280;53242;51.694;10.006;2023-02-12T03:19:28;101559.63;;;7.61;92.35
66430;BME280;53242;51.694;10.006;2023-02-12T03:22:01;101567.97;;;7.66;92.12
66430;BME280;53242;51.694;10.006;2023-02-12T03:27:08;101568.44;;;7.71;91.81
66430;BME280;53242;51.694;10.006;2023-02-12T03:29:31;101564.00;;;7.71;91.76
66430;BME280;53242;51.694;10.006;2023-02-12T03:34:53;101571.09;;;7.60;92.48
66430;BME280;53242;51.694;10.006;2023-02-12T03:37:21;101565.72;;;7.61;92.33
66430;BME280;53242;51.694;10.006;2023-02-12T03:39:58;101568.88;;;7.55;92.81
66430;BME280;53242;51.694;10.006;2023-02-12T03:42:54;101570.34;;;7.69;92.40
66430;BME280;53242;51.694;10.006;2023-02-12T03:45:52;101571.56;;;7.65;92.60
66430;BME280;53242;51.694;10.006;2023-02-12T03:48:29;101576.81;;;7.65;92.31
66430;BME280;53242;51.694;10.006;2023-02-12T03:51:03;101574.66;;;7.70;92.03
66430;BME280;53242;51.694;10.006;2023-02-12T03:53:27;101565.56;;;7.74;91.82
66430;BME280;53242;51.694;10.006;2023-02-12T03:55:54;101574.31;;;7.63;92.02
66430;BME280;53242;51.694;10.006;2023-02-12T03:58:22;101574.81;;;7.57;92.07
66430;BME280;53242;51.694;10.006;2023-02-12T04:00:48;101575.53;;;7.59;92.09
66430;BME280;53242;51.694;10.006;2023-02-12T04:03:11;101578.63;;;7.64;92.63
66430;BME280;53242;51.694;10.006;2023-02-12T04:05:34;101573.69;;;7.71;92.44
66430;BME280;53242;51.694;10.006;2023-02-12T04:07:57;101575.66;;;7.57;92.46
66430;BME280;53242;51.694;10.006;2023-02-12T04:10:27;101581.63;;;7.60;92.45
66430;BME280;53242;51.694;10.006;2023-02-12T04:12:54;101593.66;;;7.62;92.77
66430;BME280;53242;51.694;10.006;2023-02-12T04:15:36;101584.72;;;7.65;92.82
66430;BME280;53242;51.694;10.006;2023-02-12T04:18:14;101595.00;;;7.68;92.55
66430;BME280;53242;51.694;10.006;2023-02-12T04:20:47;101599.78;;;7.51;92.87
66430;BME280;53242;51.694;10.006;2023-02-12T04:29:24;101610.97;;;7.65;93.05
66430;BME280;53242;51.694;10.006;2023-02-12T04:31:55;101619.00;;;7.52;93.03
66430;BME280;53242;51.694;10.006;2023-02-12T04:34:36;101617.34;;;7.51;93.52
66430;BME280;53242;51.694;10.006;2023-02-12T04:37:17;101613.53;;;7.44;93.58
66430;BME280;53242;51.694;10.006;2023-02-12T04:39:41;101613.69;;;7.42;93.36
66430;BME280;53242;51.694;10.006;2023-02-12T04:42:04;101624.28;;;7.52;93.48
66430;BME280;53242;51.694;10.006;2023-02-12T04:44:30;101616.63;;;7.49;93.36
66430;BME280;53242;51.694;10.006;2023-02-12T04:46:52;101622.25;;;7.44;93.34
66430;BME280;53242;51.694;10.006;2023-02-12T04:49:17;101622.25;;;7.55;93.73
66430;BME280;53242;51.694;10.006;2023-02-12T04:51:39;101627.63;;;7.43;93.72
66430;BME280;53242;51.694;10.006;2023-02-12T04:54:02;101625.75;;;7.33;93.62
66430;BME280;53242;51.694;10.006;2023-02-12T04:56:24;101620.09;;;7.38;93.81
66430;BME280;53242;51.694;10.006;2023-02-12T04:58:46;101623.94;;;7.34;94.56
66430;BME280;53242;51.694;10.006;2023-02-12T05:01:09;101628.44;;;7.43;94.12
66430;BME280;53242;51.694;10.006;2023-02-12T05:03:32;101621.63;;;7.52;93.63
66430;BME280;53242;51.694;10.006;2023-02-12T05:05:54;101619.88;;;7.52;93.76
66430;BME280;53242;51.694;10.006;2023-02-12T05:08:16;101627.03;;;7.39;93.83
66430;BME280;53242;51.694;10.006;2023-02-12T05:10:39;101626.28;;;7.48;93.95
66430;BME280;53242;51.694;10.006;2023-02-12T05:13:01;101625.47;;;7.36;94.10
66430;BME280;53242;51.694;10.006;2023-02-12T05:15:24;101624.66;;;7.36;94.18
66430;BME280;53242;51.694;10.006;2023-02-12T05:17:46;101627.03;;;7.50;94.22
66430;BME280;53242;51.694;10.006;2023-02-12T05:20:09;101630.13;;;7.44;94.00
66430;BME280;53242;51.694;10.006;2023-02-12T05:22:31;101622.16;;;7.34;93.87
66430;BME280;53242;51.694;10.006;2023-02-12T05:24:54;101626.91;;;7.40;94.17
66430;BME280;53242;51.694;10.006;2023-02-12T05:27:16;101632.75;;;7.44;93.94
66430;BME280;53242;51.694;10.006;2023-02-12T05:29:39;101640.16;;;7.50;93.92
66430;BME280;53242;51.694;10.006;2023-02-12T05:32:01;101643.00;;;7.58;93.77
66430;BME280;53242;51.694;10.006;2023-02-12T05:34:23;101641.13;;;7.49;93.72
66430;BME280;53242;51.694;10.006;2023-02-12T05:36:46;101632.50;;;7.58;93.71
66430;BME280;53242;51.694;10.006;2023-02-12T05:39:09;101633.00;;;7.52;93.49
66430;BME280;53242;51.694;10.006;2023-02-12T05:41:32;101641.34;;;7.57;93.59
66430;BME280;53242;51.694;10.006;2023-02-12T05:43:56;101638.34;;;7.62;93.30
66430;BME280;53242;51.694;10.006;2023-02-12T05:46:20;101644.94;;;7.56;93.01
66430;BME280;53242;51.694;10.006;2023-02-12T05:48:42;101638.13;;;7.54;93.30
66430;BME280;53242;51.694;10.006;2023-02-12T05:51:10;101636.59;;;7.51;93.48
66430;BME280;53242;51.694;10.006;2023-02-12T05:53:33;101638.13;;;7.54;93.58
66430;BME280;53242;51.694;10.006;2023-02-12T05:56:19;101638.47;;;7.49;93.71
66430;BME280;53242;51.694;10.006;2023-02-12T05:58:44;101644.00;;;7.57;93.67
66430;BME280;53242;51.694;10.006;2023-02-12T06:01:14;101640.88;;;7.52;93.51
66430;BME280;53242;51.694;10.006;2023-02-12T06:03:37;101639.81;;;7.55;93.51
66430;BME280;53242;51.694;10.006;2023-02-12T06:05:59;101641.38;;;7.46;93.59
66430;BME280;53242;51.694;10.006;2023-02-12T06:08:22;101637.41;;;7.52;93.83
66430;BME280;53242;51.694;10.006;2023-02-12T06:10:44;101640.41;;;7.36;94.05
66430;BME280;53242;51.694;10.006;2023-02-12T06:13:07;101645.19;;;7.42;94.14
66430;BME280;53242;51.694;10.006;2023-02-12T06:15:29;101647.44;;;7.35;94.50
66430;BME280;53242;51.694;10.006;2023-02-12T06:17:52;101644.25;;;7.32;94.27
66430;BME280;53242;51.694;10.006;2023-02-12T06:20:15;101641.50;;;7.33;94.58
66430;BME280;53242;51.694;10.006;2023-02-12T06:22:37;101650.44;;;7.31;94.74
66430;BME280;53242;51.694;10.006;2023-02-12T06:24:59;101647.81;;;7.31;94.53
66430;BME280;53242;51.694;10.006;2023-02-12T06:27:22;101645.81;;;7.34;94.50
66430;BME280;53242;51.694;10.006;2023-02-12T06:29:44;101657.47;;;7.41;94.56
66430;BME280;53242;51.694;10.006;2023-02-12T06:32:07;101658.34;;;7.42;94.28
66430;BME280;53242;51.694;10.006;2023-02-12T06:34:29;101663.59;;;7.42;94.30
66430;BME280;53242;51.694;10.006;2023-02-12T06:36:52;101669.53;;;7.44;93.92
66430;BME280;53242;51.694;10.006;2023-02-12T06:39:15;101666.31;;;7.52;93.97
66430;BME280;53242;51.694;10.006;2023-02-12T06:41:38;101672.41;;;7.30;94.19
66430;BME280;53242;51.694;10.006;2023-02-12T06:44:01;101663.69;;;7.52;93.87
66430;BME280;53242;51.694;10.006;2023-02-12T06:46:24;101672.50;;;7.51;93.63
66430;BME280;53242;51.694;10.006;2023-02-12T06:48:46;101681.84;;;7.44;93.80
66430;BME280;53242;51.694;10.006;2023-02-12T06:53:33;101682.81;;;7.65;93.33
66430;BME280;53242;51.694;10.006;2023-02-12T06:55:56;101693.06;;;7.57;93.36
66430;BME280;53242;51.694;10.006;2023-02-12T06:58:18;101684.09;;;7.60;93.16
66430;BME280;53242;51.694;10.006;2023-02-12T07:00:41;101688.53;;;7.59;93.04
66430;BME280;53242;51.694;10.006;2023-02-12T07:03:03;101679.44;;;7.63;93.00
66430;BME280;53242;51.694;10.006;2023-02-12T07:05:25;101688.53;;;7.70;92.85
66430;BME280;53242;51.694;10.006;2023-02-12T07:07:48;101694.47;;;7.72;92.28
66430;BME280;53242;51.694;10.006;2023-02-12T07:10:10;101690.44;;;7.68;92.22
66430;BME280;53242;51.694;10.006;2023-02-12T07:12:33;101701.19;;;7.65;92.26
66430;BME280;53242;51.694;10.006;2023-02-12T07:14:55;101706.06;;;7.58;92.78
66430;BME280;53242;51.694;10.006;2023-02-12T07:17:18;101698.78;;;7.62;92.91
66430;BME280;53242;51.694;10.006;2023-02-12T07:19:40;101702.97;;;7.53;93.10
66430;BME280;53242;51.694;10.006;2023-02-12T07:22:03;101708.69;;;7.58;93.22
66430;BME280;53242;51.694;10.006;2023-02-12T07:24:25;101711.09;;;7.62;93.10
66430;BME280;53242;51.694;10.006;2023-02-12T07:26:48;101703.69;;;7.55;93.02
66430;BME280;53242;51.694;10.006;2023-02-12T07:29:10;101704.16;;;7.49;93.57
66430;BME280;53242;51.694;10.006;2023-02-12T07:31:33;101706.81;;;7.61;93.32
66430;BME280;53242;51.694;10.006;2023-02-12T07:33:57;101720.88;;;7.71;92.94
66430;BME280;53242;51.694;10.006;2023-02-12T07:36:20;101711.72;;;7.54;92.72
66430;BME280;53242;51.694;10.006;2023-02-12T07:38:43;101716.72;;;7.57;92.89
66430;BME280;53242;51.694;10.006;2023-02-12T07:41:14;101722.22;;;7.54;93.38
66430;BME280;53242;51.694;10.006;2023-02-12T07:43:40;101729.50;;;7.50;93.33
66430;BME280;53242;51.694;10.006;2023-02-12T07:46:11;101721.97;;;7.57;93.49
66430;BME280;53242;51.694;10.006;2023-02-12T07:48:34;101722.81;;;7.57;93.05
66430;BME280;53242;51.694;10.006;2023-02-12T07:51:02;101717.06;;;7.64;93.32
66430;BME280;53242;51.694;10.006;2023-02-12T07:53:24;101721.72;;;7.71;93.19
66430;BME280;53242;51.694;10.006;2023-02-12T07:55:46;101722.31;;;7.75;92.67
66430;BME280;53242;51.694;10.006;2023-02-12T07:58:09;101720.88;;;7.71;92.64
66430;BME280;53242;51.694;10.006;2023-02-12T08:00:31;101722.56;;;7.72;92.78
66430;BME280;53242;51.694;10.006;2023-02-12T08:02:54;101722.31;;;7.75;92.48
66430;BME280;53242;51.694;10.006;2023-02-12T08:05:16;101719.34;;;7.80;92.53
66430;BME280;53242;51.694;10.006;2023-02-12T08:07:38;101721.72;;;7.71;92.76
66430;BME280;53242;51.694;10.006;2023-02-12T08:10:01;101720.88;;;7.71;92.78
66430;BME280;53242;51.694;10.006;2023-02-12T08:12:24;101721.97;;;7.80;92.56
66430;BME280;53242;51.694;10.006;2023-02-12T08:14:46;101722.44;;;7.73;92.60
66430;BME280;53242;51.694;10.006;2023-02-12T08:17:08;101725.06;;;7.73;92.51
66430;BME280;53242;51.694;10.006;2023-02-12T08:19:31;101723.88;;;7.78;92.29
66430;BME280;53242;51.694;10.006;2023-02-12T08:21:54;101723.03;;;7.77;92.43
66430;BME280;53242;51.694;10.006;2023-02-12T08:24:17;101727.91;;;7.82;92.31
66430;BME280;53242;51.694;10.006;2023-02-12T08:26:39;101727.81;;;7.83;92.19
66430;BME280;53242;51.694;10.006;2023-02-12T08:29:17;101732.94;;;7.85;92.34
66430;BME280;53242;51.694;10.006;2023-02-12T08:31:42;101731.41;;;7.82;92.27
66430;BME280;53242;51.694;10.006;2023-02-12T08:34:05;101734.72;;;7.84;92.44
66430;BME280;53242;51.694;10.006;2023-02-12T08:36:38;101742.63;;;7.84;92.37
66430;BME280;53242;51.694;10.006;2023-02-12T08:39:01;101734.38;;;7.89;92.41
66430;BME280;53242;51.694;10.006;2023-02-12T08:41:26;101743.69;;;7.82;92.35
66430;BME280;53242;51.694;10.006;2023-02-12T08:43:51;101745.72;;;7.89;92.05
66430;BME280;53242;51.694;10.006;2023-02-12T08:46:16;101746.91;;;7.97;91.87
66430;BME280;53242;51.694;10.006;2023-02-12T08:48:39;101747.41;;;7.90;91.81
66430;BME280;53242;51.694;10.006;2023-02-12T08:51:07;101754.94;;;7.95;91.80
66430;BME280;53242;51.694;10.006;2023-02-12T08:53:30;101748.47;;;7.99;91.77
66430;BME280;53242;51.694;10.006;2023-02-12T08:55:53;101750.03;;;7.90;91.91
66430;BME280;53242;51.694;10.006;2023-02-12T08:58:15;101753.72;;;7.99;91.68
66430;BME280;53242;51.694;10.006;2023-02-12T09:00:38;101757.09;;;8.01;91.74
66430;BME280;53242;51.694;10.006;2023-02-12T09:03:00;101757.16;;;8.11;91.23
66430;BME280;53242;51.694;10.006;2023-02-12T09:05:22;101750.97;;;8.12;91.45
66430;BME280;53242;51.694;10.006;2023-02-12T09:07:45;101754.78;;;8.08;91.73
66430;BME280;53242;51.694;10.006;2023-02-12T09:10:07;101759.78;;;8.11;91.55
66430;BME280;53242;51.694;10.006;2023-02-12T09:12:30;101764.44;;;8.19;91.46
66430;BME280;53242;51.694;10.006;2023-02-12T09:14:52;101768.75;;;8.20;91.37
66430;BME280;53242;51.694;10.006;2023-02-12T09:17:15;101770.22;;;8.13;91.29
66430;BME280;53242;51.694;10.006;2023-02-12T09:19:37;101776.44;;;8.12;91.62
66430;BME280;53242;51.694;10.006;2023-02-12T09:21:59;101776.31;;;8.13;91.51
66430;BME280;53242;51.694;10.006;2023-02-12T09:24:24;101779.66;;;8.15;91.39
66430;BME280;53242;51.694;10.006;2023-02-12T09:26:46;101782.03;;;8.18;91.38
66430;BME280;53242;51.694;10.006;2023-02-12T09:29:09;101780.69;;;8.24;91.41
66430;BME280;53242;51.694;10.006;2023-02-12T09:31:32;101786.09;;;8.22;91.51
66430;BME280;53242;51.694;10.006;2023-02-12T09:33:57;101782.03;;;8.30;91.43
66430;BME280;53242;51.694;10.006;2023-02-12T09:36:21;101785.81;;;8.37;91.12
66430;BME280;53242;51.694;10.006;2023-02-12T09:38:43;101775.34;;;8.26;91.51
66430;BME280;53242;51.694;10.006;2023-02-12T09:43:52;101780.34;;;8.29;91.30
66430;BME280;53242;51.694;10.006;2023-02-12T09:46:29;101785.34;;;8.54;90.82
66430;BME280;53242;51.694;10.006;2023-02-12T09:49:07;101787.81;;;8.67;90.90
66430;BME280;53242;51.694;10.006;2023-02-12T09:51:31;101787.06;;;8.65;90.73
66430;BME280;53242;51.694;10.006;2023-02-12T09:54:11;101786.84;;;8.68;90.60
66430;BME280;53242;51.694;10.006;2023-02-12T09:56:37;101793.56;;;8.61;90.97
66430;BME280;53242;51.694;10.006;2023-02-12T09:59:05;101791.25;;;8.68;90.62
66430;BME280;53242;51.694;10.006;2023-02-12T10:01:28;101798.16;;;8.80;90.16
66430;BME280;53242;51.694;10.006;2023-02-12T10:03:51;101795.16;;;8.85;90.22
66430;BME280;53242;51.694;10.006;2023-02-12T10:08:56;101796.44;;;8.91;89.81
66430;BME280;53242;51.694;10.006;2023-02-12T10:26:49;101797.31;;;9.12;88.97
66430;BME280;53242;51.694;10.006;2023-02-12T10:29:17;101790.50;;;9.10;89.02
66430;BME280;53242;51.694;10.006;2023-02-12T10:31:44;101786.31;;;9.07;88.63
66430;BME280;53242;51.694;10.006;2023-02-12T10:34:18;101796.00;;;9.07;88.70
66430;BME280;53242;51.694;10.006;2023-02-12T10:36:49;101791.75;;;9.15;88.07
66430;BME280;53242;51.694;10.006;2023-02-12T10:39:24;101795.69;;;9.21;87.66
66430;BME280;53242;51.694;10.006;2023-02-12T10:42:11;101792.84;;;9.13;87.59
66430;BME280;53242;51.694;10.006;2023-02-12T10:44:37;101788.63;;;9.21;87.39
66430;BME280;53242;51.694;10.006;2023-02-12T10:47:00;101792.78;;;9.24;87.40
66430;BME280;53242;51.694;10.006;2023-02-12T10:49:23;101791.44;;;9.30;87.32
66430;BME280;53242;51.694;10.006;2023-02-12T10:52:08;101795.16;;;9.27;87.18
66430;BME280;53242;51.694;10.006;2023-02-12T10:54:35;101795.56;;;9.23;87.21
66430;BME280;53242;51.694;10.006;2023-02-12T10:56:59;101791.31;;;9.10;87.39
66430;BME280;53242;51.694;10.006;2023-02-12T10:59:27;101797.34;;;9.01;87.50
66430;BME280;53242;51.694;10.006;2023-02-12T11:01:50;101795.53;;;9.01;87.97
66430;BME280;53242;51.694;10.006;2023-02-12T11:07:06;101795.16;;;9.06;87.46
66430;BME280;53242;51.694;10.006;2023-02-12T11:09:34;101795.63;;;9.11;87.16
66430;BME280;53242;51.694;10.006;2023-02-12T11:11:57;101794.25;;;8.96;87.90
66430;BME280;53242;51.694;10.006;2023-02-12T11:14:20;101796.13;;;9.05;87.08
66430;BME280;53242;51.694;10.006;2023-02-12T11:16:50;101801.22;;;8.97;87.17
66430;BME280;53242;51.694;10.006;2023-02-12T11:19:28;101792.13;;;8.89;87.29
66430;BME280;53242;51.694;10.006;2023-02-12T11:21:50;101790.41;;;9.00;87.09
66430;BME280;53242;51.694;10.006;2023-02-12T11:24:33;101789.44;;;9.01;86.34
66430;BME280;53242;51.694;10.006;2023-02-12T11:29:42;101779.09;;;9.09;86.04
66430;BME280;53242;51.694;10.006;2023-02-12T11:32:07;101776.22;;;9.12;85.88
66430;BME280;53242;51.694;10.006;2023-02-12T11:34:30;101767.38;;;9.13;85.58
66430;BME280;53242;51.694;10.006;2023-02-12T11:36:53;101779.81;;;9.11;85.85
66430;BME280;53242;51.694;10.006;2023-02-12T11:39:19;101770.56;;;8.96;85.91
66430;BME280;53242;51.694;10.006;2023-02-12T11:41:42;101778.09;;;9.00;86.43
66430;BME280;53242;51.694;10.006;2023-02-12T11:44:26;101777.81;;;9.03;86.21
66430;BME280;53242;51.694;10.006;2023-02-12T11:46:53;101777.97;;;9.02;86.49
66430;BME280;53242;51.694;10.006;2023-02-12T11:49:48;101778.84;;;8.91;86.77
66430;BME280;53242;51.694;10.006;2023-02-12T11:52:22;101773.00;;;9.09;86.75
66430;BME280;53242;51.694;10.006;2023-02-12T11:54:46;101774.91;;;9.07;86.18
66430;BME280;53242;51.694;10.006;2023-02-12T11:59:59;101776.41;;;8.99;86.80
66430;BME280;53242;51.694;10.006;2023-02-12T12:02:36;101774.47;;;9.01;86.51
66430;BME280;53242;51.694;10.006;2023-02-12T12:05:18;101783.41;;;9.10;85.97
66430;BME280;53242;51.694;10.006;2023-02-12T12:07:45;101768.31;;;9.12;85.63
66430;BME280;53242;51.694;10.006;2023-02-12T12:12:53;101771.28;;;9.19;84.99
66430;BME280;53242;51.694;10.006;2023-02-12T12:15:37;101767.28;;;9.25;84.85
66430;BME280;53242;51.694;10.006;2023-02-12T12:18:46;101768.50;;;8.99;86.53
66430;BME280;53242;51.694;10.006;2023-02-12T12:21:38;101771.41;;;9.17;86.46
66430;BME280;53242;51.694;10.006;2023-02-12T12:24:18;101773.31;;;9.15;86.35
66430;BME280;53242;51.694;10.006;2023-02-12T12:26:46;101760.47;;;9.01;86.76
66430;BME280;53242;51.694;10.006;2023-02-12T12:29:49;101760.75;;;8.98;87.01
66430;BME280;53242;51.694;10.006;2023-02-12T12:32:15;101769.16;;;9.13;86.84
66430;BME280;53242;51.694;10.006;2023-02-12T12:34:39;101766.47;;;9.03;87.23
66430;BME280;53242;51.694;10.006;2023-02-12T12:42:51;101769.53;;;9.29;85.77
66430;BME280;53242;51.694;10.006;2023-02-12T12:45:41;101767.03;;;9.07;86.60
66430;BME280;53242;51.694;10.006;2023-02-12T12:48:15;101764.53;;;9.05;85.97
66430;BME280;53242;51.694;10.006;2023-02-12T12:50:51;101763.28;;;9.09;86.37
66430;BME280;53242;51.694;10.006;2023-02-12T12:56:15;101760.03;;;8.96;86.99
66430;BME280;53242;51.694;10.006;2023-02-12T12:59:20;101758.47;;;9.14;86.11
66430;BME280;53242;51.694;10.006;2023-02-12T13:05:20;101752.00;;;8.97;87.04
66430;BME280;53242;51.694;10.006;2023-02-12T13:13:36;101760.78;;;8.86;86.24
66430;BME280;53242;51.694;10.006;2023-02-12T13:16:10;101753.22;;;8.93;86.15
66430;BME280;53242;51.694;10.006;2023-02-12T13:21:28;101751.91;;;8.66;87.30
66430;BME280;53242;51.694;10.006;2023-02-12T13:26:55;101742.03;;;8.80;86.01
66430;BME280;53242;51.694;10.006;2023-02-12T13:29:23;101752.22;;;8.73;86.44
66430;BME280;53242;51.694;10.006;2023-02-12T13:31:51;101746.91;;;8.84;86.09
66430;BME280;53242;51.694;10.006;2023-02-12T13:34:16;101744.31;;;8.73;85.92
66430;BME280;53242;51.694;10.006;2023-02-12T13:36:40;101746.78;;;8.86;85.62
66430;BME280;53242;51.694;10.006;2023-02-12T13:39:14;101742.41;;;8.96;85.18
66430;BME280;53242;51.694;10.006;2023-02-12T13:41:43;101744.31;;;8.73;85.79
66430;BME280;53242;51.694;10.006;2023-02-12T13:53:00;101732.66;;;8.66;85.75
66430;BME280;53242;51.694;10.006;2023-02-12T13:55:35;101735.47;;;8.74;85.72
66430;BME280;53242;51.694;10.006;2023-02-12T14:03:15;101727.19;;;9.00;84.78
66430;BME280;53242;51.694;10.006;2023-02-12T14:05:37;101713.56;;;8.95;84.89
66430;BME280;53242;51.694;10.006;2023-02-12T14:08:03;101717.44;;;8.91;85.14
66430;BME280;53242;51.694;10.006;2023-02-12T14:10:29;101726.88;;;8.93;84.84
66430;BME280;53242;51.694;10.006;2023-02-12T14:12:56;101729.00;;;8.99;84.53
66430;BME280;53242;51.694;10.006;2023-02-12T14:15:38;101729.59;;;9.03;84.58
66430;BME280;53242;51.694;10.006;2023-02-12T14:18:21;101731.06;;;8.96;84.84
66430;BME280;53242;51.694;10.006;2023-02-12T14:20:44;101732.41;;;8.90;84.73
66430;BME280;53242;51.694;10.006;2023-02-12T14:23:27;101728.56;;;8.94;84.56